createdAt,value
2023-06-04T00:01:32.412Z,11.80
2023-06-04T00:03:59.164Z,11.70
2023-06-04T00:06:25.907Z,11.80
2023-06-04T00:08:52.493Z,11.40
2023-06-04T00:11:19.222Z,11.80
2023-06-04T00:13:45.847Z,11.60
2023-06-04T00:16:12.585Z,11.60
2023-06-04T00:18:39.319Z,11.50
2023-06-04T00:21:06.218Z,12.20
2023-06-04T00:23:33.050Z,11.40
2023-06-04T00:25:59.765Z,11.40
2023-06-04T00:28:26.399Z,11.40
2023-06-04T00:30:53.066Z,11.30
2023-06-04T00:33:19.736Z,11.20
2023-06-04T00:35:46.433Z,11.20
2023-06-04T00:38:13.048Z,11.00
2023-06-04T00:40:39.638Z,11.00
2023-06-04T00:43:06.606Z,10.90
2023-06-04T00:45:33.269Z,10.90
2023-06-04T00:48:00.172Z,10.80
2023-06-04T00:50:27.054Z,10.80
2023-06-04T00:52:55.176Z,10.80
2023-06-04T00:55:22.032Z,10.80
2023-06-04T00:57:48.658Z,10.70
2023-06-04T01:00:18.514Z,10.70
2023-06-04T01:02:51.952Z,10.60
2023-06-04T01:05:35.137Z,10.60
2023-06-04T01:08:02.587Z,10.70
2023-06-04T01:10:29.186Z,10.70
2023-06-04T01:12:55.883Z,10.70
2023-06-04T01:15:22.519Z,10.70
2023-06-04T01:17:52.654Z,9.90
2023-06-04T01:20:44.588Z,10.10
2023-06-04T01:23:19.412Z,10.60
2023-06-04T01:25:50.521Z,10.50
2023-06-04T01:28:18.290Z,10.50
2023-06-04T01:30:47.188Z,10.40
2023-06-04T01:33:19.032Z,10.40
2023-06-04T01:35:45.856Z,10.40
2023-06-04T01:38:12.493Z,10.30
2023-06-04T01:40:39.092Z,10.30
2023-06-04T01:43:06.028Z,10.20
2023-06-04T01:45:32.750Z,10.30
2023-06-04T01:48:02.461Z,10.20
2023-06-04T01:50:29.106Z,10.20
2023-06-04T01:52:55.713Z,10.20
2023-06-04T01:55:22.330Z,10.20
2023-06-04T01:57:49.085Z,10.20
2023-06-04T02:00:15.854Z,10.10
2023-06-04T02:02:44.629Z,10.00
2023-06-04T02:05:11.820Z,10.00
2023-06-04T02:07:45.895Z,10.00
2023-06-04T02:10:14.142Z,10.00
2023-06-04T02:12:53.018Z,10.00
2023-06-04T02:15:20.068Z,10.00
2023-06-04T02:17:46.798Z,9.90
2023-06-04T02:20:13.556Z,9.80
2023-06-04T02:22:40.467Z,9.80
2023-06-04T02:25:09.957Z,9.80
2023-06-04T02:27:36.736Z,9.70
2023-06-04T02:30:04.735Z,9.60
2023-06-04T02:32:31.393Z,9.60
2023-06-04T02:34:58.009Z,9.60
2023-06-04T02:37:24.673Z,9.60
2023-06-04T02:39:51.352Z,9.60
2023-06-04T02:42:17.953Z,9.50
2023-06-04T02:44:44.551Z,9.50
2023-06-04T02:47:11.201Z,9.50
2023-06-04T02:49:37.826Z,9.50
2023-06-04T02:52:04.831Z,9.50
2023-06-04T02:54:31.599Z,9.50
2023-06-04T02:56:58.201Z,9.50
2023-06-04T02:59:24.804Z,9.50
2023-06-04T03:01:51.577Z,9.50
2023-06-04T03:04:18.883Z,9.50
2023-06-04T03:06:45.853Z,9.50
2023-06-04T03:09:13.001Z,9.50
2023-06-04T03:11:39.703Z,9.50
2023-06-04T03:14:06.503Z,9.50
2023-06-04T03:16:33.828Z,9.50
2023-06-04T03:19:00.797Z,9.50
2023-06-04T03:21:29.934Z,9.40
2023-06-04T03:23:56.985Z,9.40
2023-06-04T03:26:23.900Z,9.40
2023-06-04T03:28:50.582Z,9.40
2023-06-04T03:31:17.240Z,9.50
2023-06-04T03:33:43.965Z,9.50
2023-06-04T03:36:10.958Z,9.50
2023-06-04T03:38:37.633Z,9.60
2023-06-04T03:41:04.202Z,9.60
2023-06-04T03:43:31.014Z,9.60
2023-06-04T03:45:57.690Z,9.70
2023-06-04T03:48:24.312Z,9.70
2023-06-04T03:50:51.750Z,9.60
2023-06-04T03:53:18.364Z,9.60
2023-06-04T03:55:44.999Z,9.60
2023-06-04T03:58:12.410Z,9.70
2023-06-04T04:00:39.095Z,9.80
2023-06-04T04:03:05.902Z,9.70
2023-06-04T04:05:33.099Z,9.80
2023-06-04T04:07:59.674Z,9.80
2023-06-04T04:10:26.473Z,9.90
2023-06-04T04:12:55.942Z,9.90
2023-06-04T04:15:22.826Z,9.90
2023-06-04T04:17:49.507Z,9.90
2023-06-04T04:20:17.278Z,10.00
2023-06-04T04:22:43.987Z,10.00
2023-06-04T04:25:10.935Z,10.00
2023-06-04T04:27:41.549Z,10.10
2023-06-04T04:30:08.714Z,10.00
2023-06-04T04:32:35.337Z,10.00
2023-06-04T04:35:01.979Z,10.10
2023-06-04T04:37:28.650Z,10.10
2023-06-04T04:39:55.233Z,10.20
2023-06-04T04:42:22.013Z,10.30
2023-06-04T04:44:51.327Z,10.40
2023-06-04T04:47:18.051Z,10.50
2023-06-04T04:49:44.696Z,10.60
2023-06-04T04:52:11.321Z,10.70
2023-06-04T04:54:37.949Z,10.80
2023-06-04T04:57:13.252Z,10.90
2023-06-04T04:59:41.042Z,11.00
2023-06-04T05:02:07.911Z,11.10
2023-06-04T05:04:34.777Z,11.10
2023-06-04T05:07:01.554Z,11.20
2023-06-04T05:09:28.179Z,11.30
2023-06-04T05:11:54.853Z,11.40
2023-06-04T05:14:21.680Z,11.40
2023-06-04T05:16:49.785Z,11.60
2023-06-04T05:19:19.428Z,11.70
2023-06-04T05:21:46.096Z,11.90
2023-06-04T05:24:12.688Z,12.00
2023-06-04T05:26:40.639Z,12.20
2023-06-04T05:29:08.454Z,12.30
2023-06-04T05:31:35.786Z,12.50
2023-06-04T05:34:03.055Z,12.60
2023-06-04T05:36:30.928Z,12.80
2023-06-04T05:38:58.335Z,12.80
2023-06-04T05:41:25.435Z,13.00
2023-06-04T05:43:52.053Z,13.10
2023-06-04T05:46:18.890Z,13.20
2023-06-04T05:48:46.337Z,13.40
2023-06-04T05:51:15.127Z,13.60
2023-06-04T05:53:41.777Z,13.80
2023-06-04T05:56:08.439Z,14.10
2023-06-04T05:58:35.973Z,14.30
2023-06-04T06:01:02.737Z,14.60
2023-06-04T06:03:29.966Z,14.80
2023-06-04T06:05:58.285Z,14.90
2023-06-04T06:08:25.020Z,14.90
2023-06-04T06:10:51.794Z,15.00
2023-06-04T06:13:18.470Z,15.10
2023-06-04T06:15:49.621Z,15.10
2023-06-04T06:18:16.614Z,15.20
2023-06-04T06:20:43.546Z,15.40
2023-06-04T06:23:10.241Z,15.50
2023-06-04T06:25:36.851Z,15.50
2023-06-04T06:28:03.636Z,15.70
2023-06-04T06:30:30.278Z,15.90
2023-06-04T06:32:57.430Z,16.00
2023-06-04T06:35:24.171Z,16.10
2023-06-04T06:37:50.793Z,16.30
2023-06-04T06:40:17.605Z,15.40
2023-06-04T06:42:49.887Z,16.50
2023-06-04T06:45:16.807Z,16.60
2023-06-04T06:47:43.592Z,16.70
2023-06-04T06:50:11.764Z,16.90
2023-06-04T06:52:38.957Z,17.00
2023-06-04T06:55:06.678Z,17.00
2023-06-04T06:57:34.624Z,17.10
2023-06-04T07:00:01.498Z,17.20
2023-06-04T07:02:29.899Z,17.20
2023-06-04T07:04:56.826Z,17.30
2023-06-04T07:07:23.738Z,17.50
2023-06-04T07:09:50.491Z,17.60
2023-06-04T07:12:17.157Z,17.70
2023-06-04T07:14:43.809Z,17.80
2023-06-04T07:17:10.430Z,17.80
2023-06-04T07:19:37.083Z,17.90
2023-06-04T07:22:03.863Z,18.10
2023-06-04T07:24:30.482Z,18.20
2023-06-04T07:26:57.297Z,18.20
2023-06-04T07:29:23.953Z,18.30
2023-06-04T07:31:50.673Z,18.40
2023-06-04T07:34:17.292Z,18.50
2023-06-04T07:36:43.916Z,18.30
2023-06-04T07:39:10.561Z,18.10
2023-06-04T07:41:37.176Z,18.30
2023-06-04T07:44:03.798Z,18.40
2023-06-04T07:46:30.585Z,18.60
2023-06-04T07:48:57.295Z,18.90
2023-06-04T07:51:23.972Z,19.70
2023-06-04T07:53:50.784Z,20.60
2023-06-04T07:56:17.435Z,21.20
2023-06-04T07:58:46.323Z,21.80
2023-06-04T08:01:12.930Z,22.20
2023-06-04T08:03:39.732Z,22.40
2023-06-04T08:06:07.155Z,22.10
2023-06-04T08:08:35.036Z,22.40
2023-06-04T08:11:01.748Z,22.70
2023-06-04T08:13:28.379Z,22.70
2023-06-04T08:15:55.020Z,22.60
2023-06-04T08:18:21.683Z,21.90
2023-06-04T08:20:48.389Z,21.70
2023-06-04T08:23:15.021Z,21.30
2023-06-04T08:25:42.091Z,20.90
2023-06-04T08:28:08.856Z,20.80
2023-06-04T08:30:37.193Z,20.50
2023-06-04T08:33:04.003Z,20.50
2023-06-04T08:35:30.804Z,20.50
2023-06-04T08:37:57.517Z,20.40
2023-06-04T08:40:24.189Z,20.30
2023-06-04T08:42:52.156Z,20.30
2023-06-04T08:45:21.176Z,20.20
2023-06-04T08:47:54.626Z,20.20
2023-06-04T08:50:24.204Z,20.10
2023-06-04T08:52:58.297Z,20.00
2023-06-04T08:55:25.173Z,20.20
2023-06-04T08:57:52.698Z,20.10
2023-06-04T09:00:19.991Z,20.10
2023-06-04T09:02:48.005Z,20.30
2023-06-04T09:05:23.628Z,20.50
2023-06-04T09:07:55.203Z,20.50
2023-06-04T09:10:25.126Z,20.60
2023-06-04T09:12:52.815Z,20.60
2023-06-04T09:15:22.364Z,20.50
2023-06-04T09:17:56.483Z,20.30
2023-06-04T09:20:26.685Z,20.40
2023-06-04T09:22:53.416Z,20.40
2023-06-04T09:25:22.372Z,20.60
2023-06-04T09:27:50.096Z,20.70
2023-06-04T09:30:17.326Z,20.70
2023-06-04T09:32:44.241Z,21.00
2023-06-04T09:35:13.847Z,21.00
2023-06-04T09:37:42.047Z,21.00
2023-06-04T09:40:10.041Z,21.10
2023-06-04T09:42:44.779Z,21.20
2023-06-04T09:45:12.658Z,21.30
2023-06-04T09:47:46.497Z,21.40
2023-06-04T09:50:13.324Z,21.50
2023-06-04T09:52:41.044Z,21.60
2023-06-04T09:55:20.701Z,21.50
2023-06-04T09:57:52.265Z,21.70
2023-06-04T10:00:23.965Z,21.80
2023-06-04T10:02:56.805Z,21.90
2023-06-04T10:05:26.155Z,21.80
2023-06-04T10:07:53.414Z,21.70
2023-06-04T10:10:24.196Z,21.70
2023-06-04T10:13:01.087Z,21.90
2023-06-04T10:15:28.259Z,21.80
2023-06-04T10:17:56.656Z,21.80
2023-06-04T10:20:24.060Z,21.90
2023-06-04T10:22:51.796Z,21.90
2023-06-04T10:25:20.812Z,21.90
2023-06-04T10:27:47.822Z,21.80
2023-06-04T10:30:14.781Z,21.80
2023-06-04T10:32:42.055Z,21.80
2023-06-04T10:35:12.557Z,22.00
2023-06-04T10:37:39.325Z,22.00
2023-06-04T10:40:07.052Z,22.00
2023-06-04T10:42:41.920Z,22.10
2023-06-04T10:45:11.041Z,21.50
2023-06-04T10:47:41.671Z,22.10
2023-06-04T10:50:11.655Z,22.00
2023-06-04T10:52:41.275Z,22.20
2023-06-04T10:55:09.444Z,21.80
2023-06-04T10:57:36.654Z,21.80
2023-06-04T11:00:06.991Z,21.80
2023-06-04T11:02:33.713Z,21.70
2023-06-04T11:05:06.620Z,21.70
2023-06-04T11:07:47.261Z,21.80
2023-06-04T11:10:15.043Z,21.90
2023-06-04T11:12:51.697Z,22.00
2023-06-04T11:15:18.469Z,22.00
2023-06-04T11:17:56.183Z,22.20
2023-06-04T11:20:23.978Z,22.20
2023-06-04T11:22:59.094Z,22.30
2023-06-04T11:25:27.191Z,22.30
2023-06-04T11:27:55.310Z,22.40
2023-06-04T11:30:22.442Z,22.50
2023-06-04T11:32:49.541Z,22.60
2023-06-04T11:35:16.302Z,22.70
2023-06-04T11:37:53.504Z,22.70
2023-06-04T11:40:20.883Z,22.80
2023-06-04T11:42:48.973Z,22.90
2023-06-04T11:45:17.510Z,22.70
2023-06-04T11:47:52.923Z,22.50
2023-06-04T11:50:20.124Z,22.60
2023-06-04T11:52:48.275Z,22.70
2023-06-04T11:55:15.786Z,22.70
2023-06-04T11:57:42.609Z,22.80
2023-06-04T12:00:13.204Z,22.60
2023-06-04T12:02:49.409Z,22.50
2023-06-04T12:05:19.765Z,23.00
2023-06-04T12:07:48.373Z,23.10
2023-06-04T12:10:15.644Z,23.00
2023-06-04T12:12:42.561Z,22.90
2023-06-04T12:15:11.036Z,22.70
2023-06-04T12:17:38.639Z,21.30
2023-06-04T12:20:06.960Z,22.80
2023-06-04T12:22:33.624Z,22.70
2023-06-04T12:25:03.873Z,22.90
2023-06-04T12:27:30.616Z,22.90
2023-06-04T12:30:03.476Z,22.90
2023-06-04T12:32:30.175Z,22.90
2023-06-04T12:34:57.352Z,23.00
2023-06-04T12:37:26.642Z,23.00
2023-06-04T12:39:53.300Z,23.10
2023-06-04T12:42:21.363Z,23.10
2023-06-04T12:44:47.992Z,23.00
2023-06-04T12:47:15.818Z,23.00
2023-06-04T12:49:42.440Z,23.00
2023-06-04T12:52:09.076Z,23.00
2023-06-04T12:54:35.710Z,23.00
2023-06-04T12:57:02.457Z,22.90
2023-06-04T12:59:29.506Z,22.80
2023-06-04T13:01:56.646Z,22.80
2023-06-04T13:04:24.787Z,22.80
2023-06-04T13:06:54.253Z,22.90
2023-06-04T13:09:21.669Z,23.00
2023-06-04T13:11:48.350Z,22.90
2023-06-04T13:14:15.305Z,22.80
2023-06-04T13:16:42.279Z,22.80
2023-06-04T13:19:09.595Z,22.80
2023-06-04T13:21:37.443Z,23.00
2023-06-04T13:24:04.429Z,23.10
2023-06-04T13:26:31.151Z,23.30
2023-06-04T13:28:57.743Z,23.40
2023-06-04T13:31:24.399Z,23.40
2023-06-04T13:33:51.015Z,23.50
2023-06-04T13:36:17.649Z,23.50
2023-06-04T13:38:44.595Z,23.60
2023-06-04T13:41:11.523Z,23.50
2023-06-04T13:43:38.462Z,23.40
2023-06-04T13:46:05.502Z,23.40
2023-06-04T13:48:32.223Z,23.20
2023-06-04T13:50:58.840Z,23.40
2023-06-04T13:53:25.466Z,23.30
2023-06-04T13:55:58.556Z,23.30
2023-06-04T13:58:28.245Z,23.40
2023-06-04T14:00:55.311Z,23.30
2023-06-04T14:03:22.194Z,23.40
2023-06-04T14:05:49.113Z,23.40
2023-06-04T14:08:15.806Z,23.30
2023-06-04T14:10:42.789Z,23.20
2023-06-04T14:13:10.054Z,23.30
2023-06-04T14:15:36.753Z,23.40
2023-06-04T14:18:05.025Z,23.30
2023-06-04T14:20:31.905Z,23.20
2023-06-04T14:22:58.758Z,23.10
2023-06-04T14:25:25.428Z,23.20
2023-06-04T14:27:52.198Z,23.20
2023-06-04T14:30:18.833Z,23.30
2023-06-04T14:32:45.545Z,23.30
2023-06-04T14:35:12.213Z,23.10
2023-06-04T14:37:38.878Z,23.30
2023-06-04T14:40:06.204Z,23.30
2023-06-04T14:42:32.991Z,23.40
2023-06-04T14:44:59.693Z,23.40
2023-06-04T14:47:26.571Z,23.40
2023-06-04T14:49:53.316Z,23.40
2023-06-04T14:52:19.899Z,23.30
2023-06-04T14:54:46.511Z,23.30
2023-06-04T14:57:14.988Z,23.30
2023-06-04T14:59:44.126Z,23.30
2023-06-04T15:02:10.989Z,23.40
2023-06-04T15:04:45.156Z,23.50
2023-06-04T15:07:11.839Z,23.30
2023-06-04T15:09:38.566Z,23.40
2023-06-04T15:12:05.858Z,23.40
2023-06-04T15:14:32.615Z,23.40
2023-06-04T15:16:59.307Z,23.30
2023-06-04T15:19:26.190Z,23.30
2023-06-04T15:21:52.862Z,23.30
2023-06-04T15:24:19.465Z,23.40
2023-06-04T15:26:46.697Z,23.40
2023-06-04T15:29:13.390Z,23.40
2023-06-04T15:31:40.103Z,22.90
2023-06-04T15:34:07.469Z,23.30
2023-06-04T15:36:35.342Z,23.30
2023-06-04T15:39:02.090Z,23.30
2023-06-04T15:41:28.749Z,23.20
2023-06-04T15:43:55.357Z,23.10
2023-06-04T15:46:25.486Z,23.10
2023-06-04T15:48:52.582Z,23.10
2023-06-04T15:51:19.245Z,23.10
2023-06-04T15:53:46.355Z,23.10
2023-06-04T15:56:14.513Z,23.00
2023-06-04T15:59:08.999Z,23.00
2023-06-04T16:01:35.654Z,22.90
2023-06-04T16:04:02.296Z,22.90
2023-06-04T16:06:29.019Z,23.00
2023-06-04T16:08:55.733Z,23.00
2023-06-04T16:11:24.897Z,23.00
2023-06-04T16:13:52.944Z,23.00
2023-06-04T16:16:20.084Z,22.90
2023-06-04T16:18:49.524Z,22.90
2023-06-04T16:21:17.286Z,22.90
2023-06-04T16:23:44.011Z,22.90
2023-06-04T16:26:10.779Z,22.90
2023-06-04T16:28:37.474Z,22.80
2023-06-04T16:31:04.153Z,22.90
2023-06-04T16:33:30.823Z,22.90
2023-06-04T16:35:57.558Z,22.80
2023-06-04T16:38:24.262Z,22.70
2023-06-04T16:40:50.989Z,22.60
2023-06-04T16:43:17.584Z,22.60
2023-06-04T16:45:46.493Z,22.60
2023-06-04T16:48:13.414Z,22.60
2023-06-04T16:50:40.277Z,22.60
2023-06-04T16:53:07.274Z,22.60
2023-06-04T16:55:35.008Z,22.50
2023-06-04T16:58:01.814Z,22.50
2023-06-04T17:00:28.721Z,22.40
2023-06-04T17:02:57.445Z,22.40
2023-06-04T17:05:27.344Z,22.40
2023-06-04T17:07:54.668Z,22.30
2023-06-04T17:10:24.894Z,22.30
2023-06-04T17:12:51.606Z,22.20
2023-06-04T17:15:18.352Z,22.30
2023-06-04T17:17:45.018Z,22.30
2023-06-04T17:20:12.537Z,22.30
2023-06-04T17:22:39.217Z,22.30
2023-06-04T17:25:06.828Z,22.10
2023-06-04T17:27:33.591Z,22.10
2023-06-04T17:30:00.259Z,22.10
2023-06-04T17:32:26.895Z,22.00
2023-06-04T17:34:53.835Z,22.00
2023-06-04T17:37:20.879Z,22.00
2023-06-04T17:39:47.633Z,21.90
2023-06-04T17:42:14.264Z,21.90
2023-06-04T17:44:40.891Z,21.90
2023-06-04T17:47:07.830Z,21.90
2023-06-04T17:49:34.460Z,21.80
2023-06-04T17:52:01.064Z,21.90
2023-06-04T17:54:27.852Z,21.90
2023-06-04T17:56:54.557Z,21.80
2023-06-04T17:59:21.221Z,21.90
2023-06-04T18:01:47.961Z,21.80
2023-06-04T18:04:14.694Z,21.70
2023-06-04T18:06:41.336Z,21.70
2023-06-04T18:09:08.103Z,21.60
2023-06-04T18:11:34.746Z,21.60
2023-06-04T18:14:01.589Z,21.50
2023-06-04T18:16:28.292Z,21.50
2023-06-04T18:18:55.309Z,21.50
2023-06-04T18:21:21.932Z,21.40
2023-06-04T18:23:52.661Z,21.40
2023-06-04T18:26:19.777Z,21.20
2023-06-04T18:28:46.448Z,21.30
2023-06-04T18:31:13.123Z,21.20
2023-06-04T18:33:50.773Z,21.00
2023-06-04T18:36:17.411Z,21.00
2023-06-04T18:38:44.128Z,20.90
2023-06-04T18:41:11.474Z,20.90
2023-06-04T18:43:38.704Z,20.80
2023-06-04T18:46:05.462Z,20.60
2023-06-04T18:48:32.170Z,20.50
2023-06-04T18:50:58.898Z,20.50
2023-06-04T18:53:25.554Z,20.40
2023-06-04T18:55:54.516Z,20.20
2023-06-04T18:58:21.213Z,20.00
2023-06-04T19:00:47.939Z,19.60
2023-06-04T19:03:14.870Z,19.70
2023-06-04T19:05:41.491Z,19.70
2023-06-04T19:08:08.084Z,19.70
2023-06-04T19:10:34.717Z,20.20
2023-06-04T19:13:01.432Z,19.60
2023-06-04T19:15:28.510Z,19.60
2023-06-04T19:17:55.529Z,19.50
2023-06-04T19:20:22.464Z,19.40
2023-06-04T19:22:49.160Z,19.20
2023-06-04T19:25:15.912Z,19.10
2023-06-04T19:27:42.970Z,18.90
2023-06-04T19:30:11.143Z,18.80
2023-06-04T19:32:37.887Z,18.70
2023-06-04T19:35:04.934Z,18.70
2023-06-04T19:37:31.546Z,18.60
2023-06-04T19:39:58.165Z,18.50
2023-06-04T19:42:25.379Z,18.40
2023-06-04T19:44:52.021Z,18.40
2023-06-04T19:47:18.650Z,18.20
2023-06-04T19:49:46.959Z,18.30
2023-06-04T19:52:13.567Z,18.20
2023-06-04T19:54:40.253Z,17.90
2023-06-04T19:57:10.848Z,18.20
2023-06-04T19:59:40.835Z,18.10
2023-06-04T20:02:08.119Z,18.00
2023-06-04T20:04:36.078Z,18.00
2023-06-04T20:07:03.257Z,17.90
2023-06-04T20:09:30.105Z,17.80
2023-06-04T20:11:56.749Z,17.80
2023-06-04T20:14:23.860Z,17.80
2023-06-04T20:16:50.694Z,17.70
2023-06-04T20:19:17.424Z,17.70
2023-06-04T20:21:44.135Z,17.70
2023-06-04T20:24:11.147Z,17.70
2023-06-04T20:26:37.955Z,17.80
2023-06-04T20:29:04.553Z,17.80
2023-06-04T20:31:32.022Z,17.80
2023-06-04T20:33:59.083Z,17.80
2023-06-04T20:36:26.370Z,17.70
2023-06-04T20:38:53.063Z,17.60
2023-06-04T20:41:22.093Z,17.60
2023-06-04T20:43:51.461Z,17.50
2023-06-04T20:46:18.615Z,17.50
2023-06-04T20:48:45.469Z,17.40
2023-06-04T20:51:15.576Z,17.30
2023-06-04T20:53:47.195Z,17.30
2023-06-04T20:56:14.108Z,17.30
2023-06-04T20:58:41.057Z,17.10
2023-06-04T21:01:07.694Z,17.00
2023-06-04T21:03:34.517Z,17.10
2023-06-04T21:06:01.192Z,17.00
2023-06-04T21:08:27.842Z,16.90
2023-06-04T21:10:54.516Z,16.80
2023-06-04T21:13:21.134Z,16.80
2023-06-04T21:15:47.841Z,16.80
2023-06-04T21:18:17.452Z,16.70
2023-06-04T21:20:44.171Z,16.70
2023-06-04T21:23:11.155Z,16.60
2023-06-04T21:25:37.983Z,16.40
2023-06-04T21:28:04.614Z,16.40
2023-06-04T21:30:31.224Z,16.30
2023-06-04T21:32:58.190Z,16.20
2023-06-04T21:35:25.018Z,16.10
2023-06-04T21:37:51.635Z,16.10
2023-06-04T21:40:18.274Z,16.00
2023-06-04T21:42:44.885Z,16.00
2023-06-04T21:45:12.252Z,16.00
2023-06-04T21:47:39.539Z,15.90
2023-06-04T21:50:06.553Z,15.90
2023-06-04T21:52:33.186Z,15.90
2023-06-04T21:55:00.110Z,15.80
2023-06-04T21:57:26.738Z,15.80
2023-06-04T21:59:53.337Z,15.70
2023-06-04T22:02:20.189Z,15.60
2023-06-04T22:04:46.917Z,15.50
2023-06-04T22:07:13.663Z,15.40
2023-06-04T22:09:40.309Z,15.40
2023-06-04T22:12:07.681Z,15.30
2023-06-04T22:14:36.331Z,15.30
2023-06-04T22:17:03.049Z,15.20
2023-06-04T22:19:29.716Z,15.20
2023-06-04T22:21:56.633Z,15.20
2023-06-04T22:24:23.348Z,15.10
2023-06-04T22:26:50.064Z,15.20
2023-06-04T22:29:17.774Z,15.00
2023-06-04T22:31:45.503Z,15.00
2023-06-04T22:34:12.323Z,14.90
2023-06-04T22:36:39.062Z,14.90
2023-06-04T22:39:05.903Z,14.80
2023-06-04T22:41:32.548Z,14.90
2023-06-04T22:43:59.212Z,14.90
2023-06-04T22:46:25.917Z,14.80
2023-06-04T22:48:52.557Z,15.90
2023-06-04T22:51:19.702Z,14.80
2023-06-04T22:53:46.704Z,14.70
2023-06-04T22:56:15.291Z,14.70
2023-06-04T22:58:42.795Z,16.10
2023-06-04T23:01:09.897Z,14.50
2023-06-04T23:03:36.850Z,14.40
2023-06-04T23:06:03.753Z,14.40
2023-06-04T23:08:30.513Z,14.30
2023-06-04T23:10:57.145Z,14.30
2023-06-04T23:13:23.777Z,14.20
2023-06-04T23:15:50.409Z,14.10
2023-06-04T23:18:17.182Z,14.10
2023-06-04T23:20:43.848Z,13.90
2023-06-04T23:23:11.548Z,14.10
2023-06-04T23:25:38.225Z,14.00
2023-06-04T23:28:04.960Z,13.90
2023-06-04T23:30:31.614Z,14.00
2023-06-04T23:32:59.962Z,14.00
2023-06-04T23:35:27.004Z,13.90
2023-06-04T23:37:53.676Z,13.90
2023-06-04T23:40:20.481Z,13.90
2023-06-04T23:42:47.145Z,13.90
2023-06-04T23:45:13.739Z,13.80
2023-06-04T23:47:40.996Z,13.80
2023-06-04T23:50:07.949Z,13.20
2023-06-04T23:52:34.724Z,13.70
2023-06-04T23:55:01.505Z,13.60
2023-06-04T23:57:28.149Z,13.60
2023-06-04T23:59:54.781Z,13.50
